Database: COMPET-N - COOP - 3PL - 4PL - CNDOOM

WAD: Doom | Doom 2 | TNT | Plutonia | AV | HR | Scythe | MM | MM2 | Requiem | CE
Category: speed | nmare | max | nm100s | tyson | pacifist | fast | respawn | nomo | misc | built | all
Highscore: ALL | IWAD | PWAD | Country | Continent

Remove: wad | map | category | player | all
MapPlayerTimeDateFilenameCommentsDL
MAP20: Judgement DayEugene Kapustin16:03.002003-08-11hr201603.zip505
MAP19: The ShaftEugene Kapustin15:31.002007-05-23m2191531.zip801
MAP21: SanctuaryEugene Kapustin13:26.002007-05-09m2211326.zip568
MAP24: Post MortemEugene Kapustin13:15.002003-08-24hr241315.zip872
MAP21: SanctuaryEugene Kapustin12:48.002010-06-01m2211248.zip560
MAP09: Sabbath SewerEugene Kapustin12:25.002005-09-05m2091225.zip567
MAP21: SanctuaryEugene Kapustin12:15.002010-06-11m2211215.zip831
MAP23: No Way OutEugene Kapustin11:35.002006-04-09m2231135.zip884
MAP29: Kings of MetalEugene Kapustin11:22.002007-05-31m2291122.zip536
MAP27: The SilosEugene Kapustin11:11.002007-04-23m2271111.zip557
MAP15: The Devils CoterieEugene Kapustin10:23.002004-03-24m2151023.zip526
MAP26: Base ExposureEugene Kapustin10:07.002006-04-08m2261007.zip581
MAP18: RegulateEugene Kapustin9:51.002004-08-14m218-951.zip567
MAP26: Base ExposureEugene Kapustin9:42.002007-04-21m226-942.zip576
MAP18: RegulateEugene Kapustin9:35.002010-01-10m218-935.zip572
MAP26: Base ExposureEugene Kapustin9:31.002015-01-27m226-931.zip2452
MAP18: RegulateEugene Kapustin9:17.002010-01-16m218-917.zip586
MAP23: Blood SacrificeEugene Kapustin9:13.002006-04-08av23-913.zip568
MAP18: RegulateEugene Kapustin9:06.002015-01-21m218-906.zip1464
MAP17: No OneEugene Kapustin7:37.002004-08-15m217-737.zip517
MAP31: The DescentEugene Kapustin7:27.002004-03-04hr31-727.zip559
MAP27: Fort HadesEugene Kapustin7:17.002007-06-11mm27-717.zip858
MAP05: Rites of PassageEugene Kapustin6:56.002005-09-06m205-656.zip578
MAP07: FrustrationEugene Kapustin6:38.002004-03-05m207-638.zip660
MAP11: Sewer ShutdownEugene Kapustin6:12.002010-06-10m211-612.zip778
MAP24: Io LabEugene Kapustin5:42.002004-03-14m224-542.zip560
MAP16: The NephilimEugene Kapustin5:30.002004-04-29m216-530.zip539
MAP08: StigmataEugene Kapustin5:04.002005-09-05m208-504.zip849
MAP20: The ExperimentEugene Kapustin4:40.002006-04-08m220-440.zip548
MAP15: Dead ZoneEugene Kapustin4:10.002004-12-28ev15-410.zip887
MAP30: ViperEugene Kapustin3:41.002003-10-16mm30-341.zip561
MAP30: ViperEugene Kapustin3:14.002004-01-04mm30-314.zip568
MAP30: ViperEugene Kapustin2:51.002004-01-12mm30-251.zip582
MAP15: The TwilightEugene Kapustin2:38.002005-08-29pl15-238.zip866
MAP30: ViperEugene Kapustin2:35.002006-02-25mm30-235.zip617
MAP30: ViperEugene Kapustin2:29.002008-04-03mm30-229.zip805
MAP32: Dances with DemonsEugene Kapustin1:43.002004-04-05m232-143.zip561
MAP32: Dances with DemonsEugene Kapustin1:39.002007-04-20m232-139.zip600
MAP32: Dances with DemonsEugene Kapustin1:30.002011-11-02m232-130.zip825
Remove: wad | map | category | player | all